Fyffe, Alabama
Current Conditions -  °F | °C
As of 9:15 PM on Tuesday 25 Nov 2014 (Local Time) from K4A9 Reporting Station
Clear Clear  
Wind Chill: 46°   Ceiling: Unl
Heat Index: 46°   Visibility: 10mi
Dew Point: 28°   Wind: 0mph
Humidity: 50%   Direction: NA
Pressure: 30.1"   Gusts: NA
Location:  34.45°N, 85.9°W
Report Text: K4A9 260315Z AUTO 00000KT 10SM CLR 08/M02 A3010 RMK AO2
Loading
Personal Weather Stations






























Interactive Weather Map New forecast layout! Learn more

10-Day Weather Forecast

Advertisements
Track Severe Weather on mobile